createdAt,value
2022-11-01T00:00:40.110Z,676.59
2022-11-01T00:01:40.093Z,676.59
2022-11-01T00:02:40.076Z,676.59
2022-11-01T00:03:40.012Z,676.60
2022-11-01T00:04:40.010Z,676.60
2022-11-01T00:05:39.977Z,676.60
2022-11-01T00:06:39.995Z,676.59
2022-11-01T00:07:39.960Z,676.58
2022-11-01T00:08:39.998Z,676.59
2022-11-01T00:09:39.936Z,676.60
2022-11-01T00:10:39.928Z,676.59
2022-11-01T00:11:39.936Z,676.60
2022-11-01T00:12:39.962Z,676.60
2022-11-01T00:13:39.889Z,676.59
2022-11-01T00:14:39.888Z,676.61
2022-11-01T00:15:39.870Z,676.60
2022-11-01T00:16:39.869Z,676.61
2022-11-01T00:17:39.849Z,676.59
2022-11-01T00:18:39.882Z,676.61
2022-11-01T00:19:39.830Z,676.62
2022-11-01T00:20:39.829Z,676.60
2022-11-01T00:21:39.809Z,676.62
2022-11-01T00:22:39.821Z,676.61
2022-11-01T00:23:39.808Z,676.60
2022-11-01T00:24:39.800Z,676.62
2022-11-01T00:25:39.749Z,676.59
2022-11-01T00:26:39.826Z,676.62
2022-11-01T00:27:39.741Z,676.61
2022-11-01T00:28:39.728Z,676.62
2022-11-01T00:29:39.730Z,676.60
2022-11-01T00:30:39.724Z,676.60
2022-11-01T00:31:39.688Z,676.60
2022-11-01T00:32:39.680Z,676.59
2022-11-01T00:33:39.678Z,676.62
2022-11-01T00:34:39.660Z,676.60
2022-11-01T00:35:39.661Z,676.59
2022-11-01T00:36:39.632Z,676.60
2022-11-01T00:37:39.620Z,676.60
2022-11-01T00:38:39.661Z,676.62
2022-11-01T00:39:39.612Z,676.59
2022-11-01T00:40:39.601Z,676.61
2022-11-01T00:41:39.580Z,676.60
2022-11-01T00:42:39.577Z,676.60
2022-11-01T00:43:39.540Z,676.59
2022-11-01T00:44:39.540Z,676.59
2022-11-01T00:45:39.541Z,676.60
2022-11-01T00:46:39.541Z,676.59
2022-11-01T00:47:39.513Z,676.59
2022-11-01T00:48:39.502Z,676.59
2022-11-01T00:49:39.480Z,676.58
2022-11-01T00:50:39.485Z,676.58
2022-11-01T00:51:39.464Z,676.59
2022-11-01T00:52:39.464Z,676.58
2022-11-01T00:53:39.454Z,676.58
2022-11-01T00:54:39.445Z,676.59
2022-11-01T00:55:39.421Z,676.58
2022-11-01T00:56:39.432Z,676.59
2022-11-01T00:57:39.392Z,676.58
2022-11-01T00:58:39.405Z,676.59
2022-11-01T00:59:41.017Z,676.59
2022-11-01T01:00:39.365Z,676.58
2022-11-01T01:01:39.448Z,676.58
2022-11-01T01:02:39.358Z,676.58
2022-11-01T01:03:39.344Z,676.59
2022-11-01T01:04:39.345Z,676.58
2022-11-01T01:05:39.306Z,676.58
2022-11-01T01:06:39.315Z,676.58
2022-11-01T01:07:39.305Z,676.58
2022-11-01T01:08:39.296Z,676.59
2022-11-01T01:09:39.273Z,676.57
2022-11-01T01:10:39.254Z,676.58
2022-11-01T01:11:39.234Z,676.58
2022-11-01T01:12:39.245Z,676.57
2022-11-01T01:13:39.225Z,676.59
2022-11-01T01:14:39.226Z,676.58
2022-11-01T01:15:39.194Z,676.59
2022-11-01T01:16:39.216Z,676.58
2022-11-01T01:17:39.165Z,676.57
2022-11-01T01:18:39.175Z,676.58
2022-11-01T01:19:39.162Z,676.58
2022-11-01T01:20:39.133Z,676.58
2022-11-01T01:21:39.157Z,676.58
2022-11-01T01:22:39.106Z,676.58
2022-11-01T01:23:39.126Z,676.58
2022-11-01T01:24:39.097Z,676.58
2022-11-01T01:25:39.085Z,676.58
2022-11-01T01:26:39.078Z,676.56
2022-11-01T01:27:39.067Z,676.58
2022-11-01T01:28:43.502Z,676.59
2022-11-01T01:29:40.029Z,676.58
2022-11-01T01:30:39.054Z,676.59
2022-11-01T01:31:39.026Z,676.58
2022-11-01T01:32:38.999Z,676.57
2022-11-01T01:33:39.000Z,676.58
2022-11-01T01:34:38.980Z,676.57
2022-11-01T01:35:38.985Z,676.58
2022-11-01T01:36:38.966Z,676.57
2022-11-01T01:37:38.958Z,676.58
2022-11-01T01:38:38.951Z,676.58
2022-11-01T01:39:38.979Z,676.58
2022-11-01T01:40:38.918Z,676.58
2022-11-01T01:41:38.899Z,676.58
2022-11-01T01:42:38.900Z,676.57
2022-11-01T01:43:38.900Z,676.55
2022-11-01T01:44:38.889Z,676.57
2022-11-01T01:45:38.881Z,676.57
2022-11-01T01:46:38.850Z,676.57
2022-11-01T01:47:38.850Z,676.57
2022-11-01T01:48:38.829Z,676.58
2022-11-01T01:49:41.660Z,676.57
2022-11-01T01:50:38.817Z,676.57
2022-11-01T01:51:38.801Z,676.57
2022-11-01T01:52:38.790Z,676.57
2022-11-01T01:53:38.779Z,676.57
2022-11-01T01:54:38.782Z,676.57
2022-11-01T01:55:38.798Z,676.57
2022-11-01T01:56:38.741Z,676.56
2022-11-01T01:57:38.750Z,676.58
2022-11-01T01:58:38.718Z,676.58
2022-11-01T01:59:38.710Z,676.56
2022-11-01T02:00:38.683Z,676.58
2022-11-01T02:01:38.997Z,676.57
2022-11-01T02:02:38.683Z,676.58
2022-11-01T02:03:38.662Z,676.57
2022-11-01T02:04:38.642Z,676.56
2022-11-01T02:05:38.662Z,676.57
2022-11-01T02:06:38.629Z,676.57
2022-11-01T02:07:38.630Z,676.57
2022-11-01T02:08:38.622Z,676.57
2022-11-01T02:09:38.609Z,676.56
2022-11-01T02:10:38.577Z,676.58
2022-11-01T02:11:38.573Z,676.57
2022-11-01T02:12:38.563Z,676.57
2022-11-01T02:13:38.542Z,676.57
2022-11-01T02:14:38.570Z,676.56
2022-11-01T02:15:38.522Z,676.57
2022-11-01T02:16:38.515Z,676.56
2022-11-01T02:17:38.522Z,676.57
2022-11-01T02:18:38.499Z,676.57
2022-11-01T02:19:38.483Z,676.57
2022-11-01T02:20:38.474Z,676.56
2022-11-01T02:21:38.463Z,676.58
2022-11-01T02:22:38.473Z,676.57
2022-11-01T02:23:38.443Z,676.57
2022-11-01T02:24:38.406Z,676.58
2022-11-01T02:25:38.424Z,676.57
2022-11-01T02:26:38.382Z,676.57
2022-11-01T02:27:38.395Z,676.58
2022-11-01T02:28:38.378Z,676.57
2022-11-01T02:29:38.362Z,676.57
2022-11-01T02:30:38.356Z,676.57
2022-11-01T02:31:38.342Z,676.56
2022-11-01T02:32:38.348Z,676.58
2022-11-01T02:33:38.327Z,676.56
2022-11-01T02:34:38.314Z,676.57
2022-11-01T02:35:38.296Z,676.57
2022-11-01T02:36:38.276Z,676.56
2022-11-01T02:37:38.294Z,676.57
2022-11-01T02:38:38.255Z,676.57
2022-11-01T02:39:38.255Z,676.57
2022-11-01T02:40:38.243Z,676.57
2022-11-01T02:41:38.234Z,676.56
2022-11-01T02:42:38.218Z,676.57
2022-11-01T02:43:38.215Z,676.57
2022-11-01T02:44:38.231Z,676.56
2022-11-01T02:45:38.187Z,676.57
2022-11-01T02:46:38.159Z,676.57
2022-11-01T02:47:38.168Z,676.57
2022-11-01T02:48:38.167Z,676.56
2022-11-01T02:49:38.134Z,676.57
2022-11-01T02:50:38.119Z,676.56
2022-11-01T02:51:38.116Z,676.58
2022-11-01T02:52:38.115Z,676.57
2022-11-01T02:53:38.096Z,676.57
2022-11-01T02:54:38.079Z,676.56
2022-11-01T02:55:38.094Z,676.57
2022-11-01T02:56:38.048Z,676.56
2022-11-01T02:57:38.306Z,676.56
2022-11-01T02:58:38.027Z,676.57
2022-11-01T02:59:38.040Z,676.57
2022-11-01T03:00:38.024Z,676.57
2022-11-01T03:01:38.103Z,676.57
2022-11-01T03:02:37.979Z,676.56
2022-11-01T03:03:37.979Z,676.57
2022-11-01T03:04:37.959Z,676.57
2022-11-01T03:05:37.960Z,676.57
2022-11-01T03:06:37.928Z,676.57
2022-11-01T03:07:37.961Z,676.57
2022-11-01T03:08:37.915Z,676.57
2022-11-01T03:09:37.919Z,676.57
2022-11-01T03:10:37.927Z,676.58
2022-11-01T03:11:37.907Z,676.57
2022-11-01T03:12:37.873Z,676.56
2022-11-01T03:13:37.860Z,676.58
2022-11-01T03:14:37.848Z,676.57
2022-11-01T03:15:37.852Z,676.57
2022-11-01T03:16:37.819Z,676.57
2022-11-01T03:17:37.812Z,676.57
2022-11-01T03:18:37.811Z,676.58
2022-11-01T03:19:37.811Z,676.57
2022-11-01T03:20:37.785Z,676.56
2022-11-01T03:21:37.791Z,676.57
2022-11-01T03:22:37.741Z,676.57
2022-11-01T03:23:37.766Z,676.57
2022-11-01T03:24:37.731Z,676.56
2022-11-01T03:25:37.720Z,676.57
2022-11-01T03:26:37.720Z,676.57
2022-11-01T03:27:37.700Z,676.57
2022-11-01T03:28:37.687Z,676.57
2022-11-01T03:29:37.680Z,676.58
2022-11-01T03:30:37.652Z,676.56
2022-11-01T03:31:37.652Z,676.57
2022-11-01T03:32:37.651Z,676.57
2022-11-01T03:33:37.645Z,676.57
2022-11-01T03:34:37.621Z,676.55
2022-11-01T03:35:37.611Z,676.56
2022-11-01T03:36:37.612Z,676.57
2022-11-01T03:37:37.652Z,676.57
2022-11-01T03:38:37.580Z,676.57
2022-11-01T03:39:37.560Z,676.57
2022-11-01T03:40:37.546Z,676.56
2022-11-01T03:41:37.574Z,676.56
2022-11-01T03:42:37.546Z,676.57
2022-11-01T03:43:37.533Z,676.56
2022-11-01T03:44:37.512Z,676.57
2022-11-01T03:45:37.504Z,676.56
2022-11-01T03:46:37.473Z,676.56
2022-11-01T03:47:37.483Z,676.57
2022-11-01T03:48:37.446Z,676.57
2022-11-01T03:49:37.458Z,676.56
2022-11-01T03:50:37.433Z,676.56
2022-11-01T03:51:37.427Z,676.57
2022-11-01T03:52:37.416Z,676.55
2022-11-01T03:53:37.457Z,676.56
2022-11-01T03:54:37.391Z,676.56
2022-11-01T03:55:37.384Z,676.57
2022-11-01T03:56:37.356Z,676.56
2022-11-01T03:57:37.485Z,676.56
2022-11-01T03:58:37.345Z,676.57
2022-11-01T03:59:37.337Z,676.55
2022-11-01T04:00:37.308Z,676.57
2022-11-01T04:01:37.470Z,676.57
2022-11-01T04:02:37.284Z,676.57
2022-11-01T04:03:37.304Z,676.56
2022-11-01T04:04:37.285Z,676.57
2022-11-01T04:05:37.257Z,676.57
2022-11-01T04:06:37.244Z,676.57
2022-11-01T04:07:37.259Z,676.57
2022-11-01T04:08:37.220Z,676.56
2022-11-01T04:09:37.237Z,676.57
2022-11-01T04:10:37.188Z,676.57
2022-11-01T04:11:37.196Z,676.57
2022-11-01T04:12:37.204Z,676.57
2022-11-01T04:13:37.176Z,676.56
2022-11-01T04:14:37.177Z,676.57
2022-11-01T04:15:37.157Z,676.57
2022-11-01T04:16:37.130Z,676.56
2022-11-01T04:17:37.137Z,676.56
2022-11-01T04:18:37.193Z,676.56
2022-11-01T04:19:37.141Z,676.56
2022-11-01T04:20:37.084Z,676.57
2022-11-01T04:21:37.088Z,676.57
2022-11-01T04:22:37.069Z,676.57
2022-11-01T04:23:37.070Z,676.55
2022-11-01T04:24:37.038Z,676.57
2022-11-01T04:25:37.050Z,676.56
2022-11-01T04:26:37.039Z,676.57
2022-11-01T04:27:37.001Z,676.56
2022-11-01T04:28:37.009Z,676.57
2022-11-01T04:29:36.982Z,676.57
2022-11-01T04:30:36.990Z,676.56
2022-11-01T04:31:36.998Z,676.56
2022-11-01T04:32:36.961Z,676.56
2022-11-01T04:33:36.929Z,676.56
2022-11-01T04:34:36.930Z,676.56
2022-11-01T04:35:36.931Z,676.56
2022-11-01T04:36:36.929Z,676.57
2022-11-01T04:37:36.889Z,676.57
2022-11-01T04:38:36.889Z,676.57
2022-11-01T04:39:36.881Z,676.56
2022-11-01T04:40:36.861Z,676.57
2022-11-01T04:41:36.842Z,676.55
2022-11-01T04:42:36.920Z,676.57
2022-11-01T04:43:36.830Z,676.56
2022-11-01T04:44:36.827Z,676.56
2022-11-01T04:45:36.806Z,676.56
2022-11-01T04:46:36.787Z,676.57
2022-11-01T04:47:36.802Z,676.57
2022-11-01T04:48:36.784Z,676.56
2022-11-01T04:49:36.761Z,676.56
2022-11-01T04:50:36.755Z,676.56
2022-11-01T04:51:36.742Z,676.57
2022-11-01T04:52:36.721Z,676.56
2022-11-01T04:53:36.727Z,676.57
2022-11-01T04:54:36.715Z,676.57
2022-11-01T04:55:36.701Z,676.56
2022-11-01T04:56:36.681Z,676.57
2022-11-01T04:57:36.662Z,676.57
2022-11-01T04:58:41.386Z,676.56
2022-11-01T04:59:37.660Z,676.55
2022-11-01T05:00:36.715Z,676.56
2022-11-01T05:01:36.755Z,676.57
2022-11-01T05:02:36.615Z,676.55
2022-11-01T05:03:36.593Z,676.57
2022-11-01T05:04:36.605Z,676.55
2022-11-01T05:05:36.576Z,676.56
2022-11-01T05:06:36.566Z,676.57
2022-11-01T05:07:36.556Z,676.56
2022-11-01T05:08:36.546Z,676.57
2022-11-01T05:09:36.558Z,676.56
2022-11-01T05:10:36.526Z,676.57
2022-11-01T05:11:36.498Z,676.56
2022-11-01T05:12:36.513Z,676.56
2022-11-01T05:13:36.478Z,676.55
2022-11-01T05:14:36.494Z,676.57
2022-11-01T05:15:40.227Z,676.57
2022-11-01T05:16:37.466Z,676.55
2022-11-01T05:17:36.447Z,676.56
2022-11-01T05:18:36.435Z,676.57
2022-11-01T05:19:36.418Z,676.56
2022-11-01T05:20:36.440Z,676.57
2022-11-01T05:21:36.386Z,676.56
2022-11-01T05:22:36.386Z,676.56
2022-11-01T05:23:36.367Z,676.56
2022-11-01T05:24:36.403Z,676.57
2022-11-01T05:25:38.190Z,676.57
2022-11-01T05:26:36.639Z,676.57
2022-11-01T05:27:36.318Z,676.56
2022-11-01T05:28:36.319Z,676.56
2022-11-01T05:29:36.360Z,676.57
2022-11-01T05:30:36.310Z,676.56
2022-11-01T05:31:36.298Z,676.57
2022-11-01T05:32:36.266Z,676.56
2022-11-01T05:33:36.271Z,676.56
2022-11-01T05:34:36.238Z,676.56
2022-11-01T05:35:36.238Z,676.57
2022-11-01T05:36:36.240Z,676.56
2022-11-01T05:37:36.211Z,676.56
2022-11-01T05:38:36.198Z,676.56
2022-11-01T05:39:36.191Z,676.57
2022-11-01T05:40:36.170Z,676.57
2022-11-01T05:41:36.179Z,676.57
2022-11-01T05:42:36.155Z,676.56
2022-11-01T05:43:36.150Z,676.56
2022-11-01T05:44:36.139Z,676.57
2022-11-01T05:45:36.132Z,676.56
2022-11-01T05:46:36.151Z,676.57
2022-11-01T05:47:36.100Z,676.57
2022-11-01T05:48:36.082Z,676.56
2022-11-01T05:49:36.075Z,676.56
2022-11-01T05:50:36.055Z,676.56
2022-11-01T05:51:36.070Z,676.56
2022-11-01T05:52:36.059Z,676.56
2022-11-01T05:53:36.050Z,676.56
2022-11-01T05:54:36.010Z,676.57
2022-11-01T05:55:36.030Z,676.56
2022-11-01T05:56:35.990Z,676.55
2022-11-01T05:57:36.030Z,676.57
2022-11-01T05:58:35.991Z,676.56
2022-11-01T05:59:35.983Z,676.57
2022-11-01T06:00:35.971Z,676.56
2022-11-01T06:01:36.009Z,676.57
2022-11-01T06:02:35.979Z,676.56
2022-11-01T06:03:35.952Z,676.57
2022-11-01T06:04:35.895Z,676.57
2022-11-01T06:05:35.904Z,676.56
2022-11-01T06:06:35.895Z,676.58
2022-11-01T06:07:35.928Z,676.57
2022-11-01T06:08:35.882Z,676.57
2022-11-01T06:09:35.856Z,676.54
2022-11-01T06:10:35.848Z,676.56
2022-11-01T06:11:41.386Z,676.56
2022-11-01T06:12:36.835Z,676.56
2022-11-01T06:13:35.823Z,676.56
2022-11-01T06:14:35.798Z,676.56
2022-11-01T06:15:38.843Z,676.56
2022-11-01T06:16:35.764Z,676.56
2022-11-01T06:17:35.766Z,676.57
2022-11-01T06:18:35.745Z,676.56
2022-11-01T06:19:35.747Z,676.57
2022-11-01T06:20:35.735Z,676.56
2022-11-01T06:21:35.716Z,676.56
2022-11-01T06:22:35.694Z,676.56
2022-11-01T06:23:35.708Z,676.55
2022-11-01T06:24:35.687Z,676.56
2022-11-01T06:25:35.690Z,676.56
2022-11-01T06:26:35.668Z,676.57
2022-11-01T06:27:35.667Z,676.57
2022-11-01T06:28:35.629Z,676.56
2022-11-01T06:29:35.640Z,676.57
2022-11-01T06:30:35.607Z,676.57
2022-11-01T06:31:35.607Z,676.58
2022-11-01T06:32:35.576Z,676.57
2022-11-01T06:33:35.588Z,676.57
2022-11-01T06:34:36.900Z,676.57
2022-11-01T06:35:35.584Z,676.57
2022-11-01T06:36:35.548Z,676.57
2022-11-01T06:37:35.536Z,676.57
2022-11-01T06:38:35.530Z,676.56
2022-11-01T06:39:35.515Z,676.56
2022-11-01T06:40:35.495Z,676.56
2022-11-01T06:41:35.488Z,676.58
2022-11-01T06:42:35.477Z,676.56
2022-11-01T06:43:35.488Z,676.56
2022-11-01T06:44:35.447Z,676.57
2022-11-01T06:45:35.471Z,676.57
2022-11-01T06:46:35.441Z,676.56
2022-11-01T06:47:35.473Z,676.57
2022-11-01T06:48:35.416Z,676.56
2022-11-01T06:49:35.440Z,676.57
2022-11-01T06:50:35.391Z,676.57
2022-11-01T06:51:35.380Z,676.56
2022-11-01T06:52:35.348Z,676.56
2022-11-01T06:53:35.360Z,676.56
2022-11-01T06:54:35.335Z,676.57
2022-11-01T06:55:35.340Z,676.57
2022-11-01T06:56:35.309Z,676.56
2022-11-01T06:57:35.320Z,676.56
2022-11-01T06:58:35.282Z,676.55
2022-11-01T06:59:35.280Z,676.56
2022-11-01T07:00:35.280Z,676.56
2022-11-01T07:01:35.416Z,676.57
2022-11-01T07:02:35.351Z,676.57
2022-11-01T07:03:35.252Z,676.56
2022-11-01T07:04:35.221Z,676.56
2022-11-01T07:05:37.170Z,676.57
2022-11-01T07:06:35.200Z,676.56
2022-11-01T07:07:35.205Z,676.56
2022-11-01T07:08:35.172Z,676.57
2022-11-01T07:09:35.172Z,676.56
2022-11-01T07:10:35.153Z,676.57
2022-11-01T07:11:35.174Z,676.55
2022-11-01T07:12:35.125Z,676.56
2022-11-01T07:13:35.128Z,676.56
2022-11-01T07:14:35.114Z,676.55
2022-11-01T07:15:35.105Z,676.57
2022-11-01T07:16:35.073Z,676.56
2022-11-01T07:17:35.114Z,676.55
2022-11-01T07:18:35.053Z,676.56
2022-11-01T07:19:35.064Z,676.56
2022-11-01T07:20:35.079Z,676.56
2022-11-01T07:21:35.032Z,676.56
2022-11-01T07:22:35.021Z,676.55
2022-11-01T07:23:35.025Z,676.57
2022-11-01T07:24:35.007Z,676.57
2022-11-01T07:25:35.007Z,676.56
2022-11-01T07:26:34.974Z,676.57
2022-11-01T07:27:34.964Z,676.56
2022-11-01T07:28:34.956Z,676.57
2022-11-01T07:29:34.945Z,676.56
2022-11-01T07:30:34.933Z,676.56
2022-11-01T07:31:34.929Z,676.57
2022-11-01T07:32:39.005Z,676.57
2022-11-01T07:33:35.916Z,676.57
2022-11-01T07:34:34.877Z,676.57
2022-11-01T07:35:34.897Z,676.58
2022-11-01T07:36:34.859Z,676.56
2022-11-01T07:37:34.857Z,676.57
2022-11-01T07:38:34.867Z,676.56
2022-11-01T07:39:34.824Z,676.57
2022-11-01T07:40:34.826Z,676.57
2022-11-01T07:41:34.816Z,676.57
2022-11-01T07:42:34.785Z,676.56
2022-11-01T07:43:34.784Z,676.57
2022-11-01T07:44:34.770Z,676.56
2022-11-01T07:45:34.771Z,676.56
2022-11-01T07:46:34.745Z,676.57
2022-11-01T07:47:34.745Z,676.56
2022-11-01T07:48:34.718Z,676.56
2022-11-01T07:49:34.717Z,676.55
2022-11-01T07:50:34.700Z,676.56
2022-11-01T07:51:34.706Z,676.57
2022-11-01T07:52:34.678Z,676.56
2022-11-01T07:53:34.686Z,676.57
2022-11-01T07:54:34.662Z,676.56
2022-11-01T07:55:34.650Z,676.56
2022-11-01T07:56:34.671Z,676.57
2022-11-01T07:57:34.632Z,676.56
2022-11-01T07:58:34.606Z,676.57
2022-11-01T07:59:34.611Z,676.56
2022-11-01T08:01:34.653Z,676.56
2022-11-01T08:02:34.611Z,676.56
2022-11-01T08:03:34.554Z,676.56
2022-11-01T08:04:34.538Z,676.57
2022-11-01T08:05:34.531Z,676.57
2022-11-01T08:06:34.530Z,676.56
2022-11-01T08:07:34.511Z,676.56
2022-11-01T08:08:34.504Z,676.55
2022-11-01T08:09:34.490Z,676.57
2022-11-01T08:10:34.462Z,676.57
2022-11-01T08:11:34.463Z,676.56
2022-11-01T08:12:34.453Z,676.57
2022-11-01T08:13:34.451Z,676.57
2022-11-01T08:14:34.415Z,676.55
2022-11-01T08:15:34.430Z,676.56
2022-11-01T08:16:34.411Z,676.55
2022-11-01T08:17:34.392Z,676.57
2022-11-01T08:18:34.391Z,676.57
2022-11-01T08:19:34.370Z,676.56
2022-11-01T08:20:34.359Z,676.56
2022-11-01T08:21:34.343Z,676.57
2022-11-01T08:22:34.430Z,676.56
2022-11-01T08:23:34.343Z,676.56
2022-11-01T08:24:34.310Z,676.56
2022-11-01T08:25:34.316Z,676.56
2022-11-01T08:26:34.283Z,676.57
2022-11-01T08:27:35.357Z,676.57
2022-11-01T08:28:34.263Z,676.58
2022-11-01T08:29:34.264Z,676.57
2022-11-01T08:30:34.243Z,676.57
2022-11-01T08:31:34.255Z,676.56
2022-11-01T08:32:34.223Z,676.57
2022-11-01T08:33:34.235Z,676.57
2022-11-01T08:34:34.203Z,676.56
2022-11-01T08:35:34.199Z,676.57
2022-11-01T08:36:34.177Z,676.56
2022-11-01T08:37:34.164Z,676.58
2022-11-01T08:38:34.156Z,676.57
2022-11-01T08:39:34.157Z,676.57
2022-11-01T08:40:34.163Z,676.57
2022-11-01T08:41:37.177Z,676.56
2022-11-01T08:42:34.102Z,676.57
2022-11-01T08:43:38.019Z,676.57
2022-11-01T08:44:35.079Z,676.57
2022-11-01T08:45:34.075Z,676.57
2022-11-01T08:46:34.071Z,676.57
2022-11-01T08:47:34.056Z,676.57
2022-11-01T08:48:34.035Z,676.57
2022-11-01T08:49:34.060Z,676.56
2022-11-01T08:50:34.015Z,676.57
2022-11-01T08:51:34.018Z,676.57
2022-11-01T08:52:33.995Z,676.58
2022-11-01T08:53:33.982Z,676.57
2022-11-01T08:54:33.999Z,676.57
2022-11-01T08:55:37.692Z,676.56
2022-11-01T08:56:33.958Z,676.57
2022-11-01T08:57:33.950Z,676.56
2022-11-01T08:58:33.927Z,676.57
2022-11-01T08:59:33.938Z,676.57
2022-11-01T09:00:33.912Z,676.56
2022-11-01T09:01:34.000Z,676.57
2022-11-01T09:02:33.972Z,676.56
2022-11-01T09:03:33.881Z,676.58
2022-11-01T09:04:33.848Z,676.58
2022-11-01T09:05:33.867Z,676.57
2022-11-01T09:06:36.309Z,676.57
2022-11-01T09:07:33.838Z,676.57
2022-11-01T09:08:33.819Z,676.57
2022-11-01T09:09:33.798Z,676.58
2022-11-01T09:10:33.798Z,676.57
2022-11-01T09:11:33.787Z,676.57
2022-11-01T09:12:33.842Z,676.57
2022-11-01T09:13:33.759Z,676.57
2022-11-01T09:14:33.751Z,676.58
2022-11-01T09:15:33.756Z,676.57
2022-11-01T09:16:33.735Z,676.56
2022-11-01T09:17:33.721Z,676.57
2022-11-01T09:18:33.723Z,676.57
2022-11-01T09:19:33.691Z,676.58
2022-11-01T09:20:33.691Z,676.58
2022-11-01T09:21:33.679Z,676.57
2022-11-01T09:22:33.647Z,676.57
2022-11-01T09:23:33.660Z,676.58
2022-11-01T09:24:33.631Z,676.57
2022-11-01T09:25:33.623Z,676.58
2022-11-01T09:26:33.606Z,676.57
2022-11-01T09:27:33.599Z,676.56
2022-11-01T09:28:34.048Z,676.57
2022-11-01T09:30:33.559Z,676.58
2022-11-01T09:31:33.563Z,676.56
2022-11-01T09:32:33.543Z,676.57
2022-11-01T09:33:33.531Z,676.58
2022-11-01T09:34:33.527Z,676.56
2022-11-01T09:35:33.505Z,676.57
2022-11-01T09:36:33.496Z,676.57
2022-11-01T09:37:33.491Z,676.57
2022-11-01T09:38:33.492Z,676.57
2022-11-01T09:39:33.468Z,676.57
2022-11-01T09:40:33.535Z,676.58
2022-11-01T09:41:33.444Z,676.57
2022-11-01T09:42:33.424Z,676.56
2022-11-01T09:43:33.427Z,676.57
2022-11-01T09:44:33.432Z,676.58
2022-11-01T09:45:33.412Z,676.58
2022-11-01T09:46:33.402Z,676.57
2022-11-01T09:47:33.363Z,676.57
2022-11-01T09:48:33.363Z,676.58
2022-11-01T09:49:33.364Z,676.57
2022-11-01T09:50:33.344Z,676.57
2022-11-01T09:51:33.331Z,676.56
2022-11-01T09:52:33.323Z,676.58
2022-11-01T09:53:33.298Z,676.58
2022-11-01T09:54:33.315Z,676.58
2022-11-01T09:55:33.264Z,676.57
2022-11-01T09:56:33.277Z,676.57
2022-11-01T09:57:33.266Z,676.57
2022-11-01T09:58:33.243Z,676.56
2022-11-01T09:59:33.235Z,676.57
2022-11-01T10:00:33.248Z,676.57
2022-11-01T10:01:33.340Z,676.57
2022-11-01T10:02:33.196Z,676.57
2022-11-01T10:03:33.200Z,676.59
2022-11-01T10:04:33.200Z,676.58
2022-11-01T10:05:33.176Z,676.57
2022-11-01T10:06:33.148Z,676.57
2022-11-01T10:07:33.138Z,676.59
2022-11-01T10:08:33.129Z,676.57
2022-11-01T10:09:33.116Z,676.57
2022-11-01T10:10:35.760Z,676.58
2022-11-01T10:11:33.108Z,676.57
2022-11-01T10:12:33.097Z,676.57
2022-11-01T10:13:33.069Z,676.58
2022-11-01T10:14:33.069Z,676.56
2022-11-01T10:15:33.048Z,676.58
2022-11-01T10:16:33.060Z,676.57
2022-11-01T10:17:33.030Z,676.58
2022-11-01T10:18:33.022Z,676.58
2022-11-01T10:19:33.000Z,676.57
2022-11-01T10:20:33.002Z,676.57
2022-11-01T10:21:32.992Z,676.56
2022-11-01T10:22:32.977Z,676.58
2022-11-01T10:23:32.971Z,676.59
2022-11-01T10:24:32.948Z,676.57
2022-11-01T10:25:32.948Z,676.58
2022-11-01T10:26:32.949Z,676.58
2022-11-01T10:27:36.270Z,676.58
2022-11-01T10:28:32.900Z,676.57
2022-11-01T10:29:32.888Z,676.58
2022-11-01T10:30:32.883Z,676.56
2022-11-01T10:31:32.890Z,676.57
2022-11-01T10:32:32.851Z,676.57
2022-11-01T10:33:32.841Z,676.58
2022-11-01T10:34:36.036Z,676.57
2022-11-01T10:35:32.820Z,676.57
2022-11-01T10:36:32.889Z,676.57
2022-11-01T10:37:32.812Z,676.57
2022-11-01T10:38:59.103Z,676.58
2022-11-01T10:39:54.725Z,676.55
2022-11-01T10:40:33.773Z,676.58
2022-11-01T10:41:32.753Z,676.57
2022-11-01T10:42:32.760Z,676.57
2022-11-01T10:43:32.738Z,676.58
2022-11-01T10:44:32.729Z,676.57
2022-11-01T10:45:32.705Z,676.58
2022-11-01T10:46:32.713Z,676.57
2022-11-01T10:47:32.685Z,676.58
2022-11-01T10:48:32.682Z,676.57
2022-11-01T10:49:53.016Z,676.58
2022-11-01T10:50:33.654Z,676.58
2022-11-01T10:51:32.643Z,676.57
2022-11-01T10:52:32.652Z,676.58
2022-11-01T10:53:32.624Z,676.58
2022-11-01T10:54:32.618Z,676.58
2022-11-01T10:55:32.606Z,676.57
2022-11-01T10:56:32.592Z,676.59
2022-11-01T10:57:32.572Z,676.58
2022-11-01T10:58:32.576Z,676.59
2022-11-01T10:59:32.577Z,676.58
2022-11-01T11:00:32.547Z,676.59
2022-11-01T11:01:32.703Z,676.58
2022-11-01T11:02:32.585Z,676.58
2022-11-01T11:03:32.546Z,676.59
2022-11-01T11:04:32.555Z,676.59
2022-11-01T11:05:32.507Z,676.59
2022-11-01T11:06:32.477Z,676.57
2022-11-01T11:07:32.458Z,676.59
2022-11-01T11:08:32.465Z,676.59
2022-11-01T11:09:32.438Z,676.58
2022-11-01T11:10:32.436Z,676.58
2022-11-01T11:11:32.424Z,676.58
2022-11-01T11:12:32.446Z,676.58
2022-11-01T11:13:32.392Z,676.58
2022-11-01T11:14:32.397Z,676.59
2022-11-01T11:15:35.496Z,676.58
2022-11-01T11:16:32.369Z,676.58
2022-11-01T11:17:32.359Z,676.58
2022-11-01T11:18:32.345Z,676.58
2022-11-01T11:19:32.325Z,676.58
2022-11-01T11:20:32.333Z,676.57
2022-11-01T11:21:32.304Z,676.59
2022-11-01T11:22:32.318Z,676.58
2022-11-01T11:23:32.289Z,676.57
2022-11-01T11:24:32.281Z,676.58
2022-11-01T11:25:32.249Z,676.57
2022-11-01T11:26:37.503Z,676.58
2022-11-01T11:27:33.237Z,676.57
2022-11-01T11:28:32.238Z,676.58
2022-11-01T11:29:32.221Z,676.59
2022-11-01T11:30:32.212Z,676.58
2022-11-01T11:31:32.190Z,676.58
2022-11-01T11:32:32.209Z,676.57
2022-11-01T11:33:32.157Z,676.58
2022-11-01T11:34:32.158Z,676.58
2022-11-01T11:35:32.157Z,676.58
2022-11-01T11:36:32.141Z,676.59
2022-11-01T11:37:32.121Z,676.58
2022-11-01T11:38:32.122Z,676.58
2022-11-01T11:39:32.133Z,676.58
2022-11-01T11:40:32.090Z,676.58
2022-11-01T11:41:32.081Z,676.59
2022-11-01T11:42:32.102Z,676.58
2022-11-01T11:43:32.050Z,676.59
2022-11-01T11:44:32.042Z,676.58
2022-11-01T11:45:32.034Z,676.58
2022-11-01T11:46:32.042Z,676.58
2022-11-01T11:47:32.033Z,676.56
2022-11-01T11:48:32.013Z,676.59
2022-11-01T11:49:31.982Z,676.59
2022-11-01T11:50:31.983Z,676.58
2022-11-01T11:51:31.962Z,676.58
2022-11-01T11:52:36.889Z,676.58
2022-11-01T11:53:32.962Z,676.58
2022-11-01T11:54:31.962Z,676.57
2022-11-01T11:55:31.911Z,676.59
2022-11-01T11:56:31.911Z,676.56
2022-11-01T11:57:31.913Z,676.58
2022-11-01T11:58:31.916Z,676.59
2022-11-01T11:59:31.873Z,676.58
2022-11-01T12:00:31.873Z,676.58
2022-11-01T12:01:31.892Z,676.58
2022-11-01T12:02:31.875Z,676.59
2022-11-01T12:03:31.835Z,676.57
2022-11-01T12:04:31.823Z,676.57
2022-11-01T12:05:31.802Z,676.58
2022-11-01T12:06:31.796Z,676.59
2022-11-01T12:07:31.777Z,676.58
2022-11-01T12:08:31.786Z,676.58
2022-11-01T12:09:31.766Z,676.59
2022-11-01T12:10:31.770Z,676.59
2022-11-01T12:11:31.734Z,676.59
2022-11-01T12:12:31.774Z,676.58
2022-11-01T12:13:31.889Z,676.59
2022-11-01T12:14:31.747Z,676.59
2022-11-01T12:15:34.399Z,676.58
2022-11-01T12:16:32.696Z,676.58
2022-11-01T12:17:31.670Z,676.57
2022-11-01T12:18:31.662Z,676.59
2022-11-01T12:19:31.661Z,676.58
2022-11-01T12:20:31.678Z,676.59
2022-11-01T12:21:31.638Z,676.59
2022-11-01T12:22:31.627Z,676.59
2022-11-01T12:23:31.606Z,676.59
2022-11-01T12:24:31.598Z,676.59
2022-11-01T12:25:31.579Z,676.59
2022-11-01T12:26:31.587Z,676.59
2022-11-01T12:27:31.547Z,676.59
2022-11-01T12:28:31.560Z,676.58
2022-11-01T12:29:31.539Z,676.58
2022-11-01T12:30:31.530Z,676.57